createdAt,value
2023-02-27T00:00:15.262Z,-0.40
2023-02-27T00:03:04.007Z,-0.41
2023-02-27T00:05:32.696Z,-0.41
2023-02-27T00:08:01.279Z,-0.42
2023-02-27T00:10:29.877Z,-0.42
2023-02-27T00:12:58.576Z,-0.43
2023-02-27T00:15:27.244Z,-0.44
2023-02-27T00:17:56.755Z,-0.44
2023-02-27T00:20:26.442Z,-0.43
2023-02-27T00:22:55.075Z,-0.42
2023-02-27T00:25:23.610Z,-0.42
2023-02-27T00:27:54.376Z,-0.42
2023-02-27T00:30:22.942Z,-0.42
2023-02-27T00:32:51.747Z,-0.43
2023-02-27T00:35:21.137Z,-0.42
2023-02-27T00:37:50.253Z,-0.43
2023-02-27T00:40:19.953Z,-0.43
2023-02-27T00:42:49.953Z,-0.43
2023-02-27T00:45:20.188Z,-0.44
2023-02-27T00:47:49.583Z,-0.44
2023-02-27T00:50:18.762Z,-0.43
2023-02-27T00:52:47.484Z,-0.43
2023-02-27T00:55:16.437Z,-0.43
2023-02-27T00:57:45.078Z,-0.42
2023-02-27T01:00:15.292Z,-0.43
2023-02-27T01:02:43.873Z,-0.42
2023-02-27T01:05:13.235Z,-0.45
2023-02-27T01:07:41.934Z,-0.45
2023-02-27T01:10:12.594Z,-0.47
2023-02-27T01:12:41.788Z,-0.47
2023-02-27T01:15:12.640Z,-0.48
2023-02-27T01:17:41.277Z,-0.49
2023-02-27T01:20:12.740Z,-0.50
2023-02-27T01:22:42.240Z,-0.51
2023-02-27T01:25:11.184Z,-0.51
2023-02-27T01:27:41.230Z,-0.52
2023-02-27T01:30:11.869Z,-0.53
2023-02-27T01:32:40.584Z,-0.54
2023-02-27T01:35:09.857Z,-0.54
2023-02-27T01:37:38.321Z,-0.55
2023-02-27T01:40:08.686Z,-0.55
2023-02-27T01:42:37.381Z,-0.55
2023-02-27T01:45:12.578Z,-0.56
2023-02-27T01:47:44.750Z,-0.57
2023-02-27T01:50:15.137Z,-0.59
2023-02-27T01:52:45.014Z,-0.59
2023-02-27T01:55:15.019Z,-0.60
2023-02-27T01:57:46.876Z,-0.60
2023-02-27T02:00:17.624Z,-0.61
2023-02-27T02:03:21.595Z,-0.62
2023-02-27T02:05:54.996Z,-0.62
2023-02-27T02:08:24.319Z,-0.63
2023-02-27T02:10:54.322Z,-0.63
2023-02-27T02:13:23.101Z,-0.64
2023-02-27T02:16:25.083Z,-0.65
2023-02-27T02:19:20.268Z,-0.65
2023-02-27T02:21:54.582Z,-0.66
2023-02-27T02:24:29.000Z,-0.67
2023-02-27T02:27:11.215Z,-0.67
2023-02-27T02:30:03.456Z,-0.68
2023-02-27T02:32:34.994Z,-0.69
2023-02-27T02:35:06.781Z,-0.70
2023-02-27T02:38:00.538Z,-0.70
2023-02-27T02:40:47.022Z,-0.71
2023-02-27T02:43:25.644Z,-0.72
2023-02-27T02:46:23.599Z,-0.73
2023-02-27T02:49:01.950Z,-0.73
2023-02-27T02:51:40.973Z,-0.73
2023-02-27T02:54:30.614Z,-0.74
2023-02-27T02:57:09.354Z,-0.74
2023-02-27T02:59:54.334Z,-0.74
2023-02-27T03:02:26.831Z,-0.75
2023-02-27T03:05:00.718Z,-0.75
2023-02-27T03:07:33.886Z,-0.75
2023-02-27T03:10:17.879Z,-0.75
2023-02-27T03:12:52.384Z,-0.76
2023-02-27T03:15:26.293Z,-0.76
2023-02-27T03:18:06.220Z,-0.77
2023-02-27T03:20:41.865Z,-0.77
2023-02-27T03:23:15.826Z,-0.77
2023-02-27T03:25:46.636Z,-0.79
2023-02-27T03:28:19.278Z,-0.79
2023-02-27T03:30:51.966Z,-0.80
2023-02-27T03:33:33.832Z,-0.80
2023-02-27T03:36:27.788Z,-0.82
2023-02-27T03:39:27.475Z,-0.82
2023-02-27T03:42:07.711Z,-0.81
2023-02-27T03:45:00.153Z,-0.81
2023-02-27T03:47:29.669Z,-0.80
2023-02-27T03:49:58.637Z,-0.80
2023-02-27T03:52:28.785Z,-0.80
2023-02-27T03:55:01.950Z,-0.79
2023-02-27T03:57:31.667Z,-0.78
2023-02-27T04:00:00.778Z,-0.78
2023-02-27T04:02:30.558Z,-0.78
2023-02-27T04:04:59.275Z,-0.78
2023-02-27T04:08:19.345Z,-0.79
2023-02-27T04:11:04.107Z,-0.79
2023-02-27T04:13:38.473Z,-0.80
2023-02-27T04:16:35.468Z,-0.80
2023-02-27T04:19:25.980Z,-0.80
2023-02-27T04:22:11.546Z,-0.81
2023-02-27T04:24:58.764Z,-0.82
2023-02-27T04:27:36.439Z,-0.81
2023-02-27T04:30:29.920Z,-0.82
2023-02-27T04:33:07.779Z,-0.83
2023-02-27T04:35:44.026Z,-0.83
2023-02-27T04:38:28.575Z,-0.84
2023-02-27T04:41:04.642Z,-0.84
2023-02-27T04:43:35.019Z,-0.83
2023-02-27T04:46:05.482Z,-0.83
2023-02-27T04:48:38.089Z,-0.82
2023-02-27T04:51:11.504Z,-0.82
2023-02-27T04:53:57.565Z,-0.83
2023-02-27T04:56:38.238Z,-0.83
2023-02-27T04:59:15.641Z,-0.83
2023-02-27T05:01:48.675Z,-0.82
2023-02-27T05:04:20.483Z,-0.82
2023-02-27T05:06:50.238Z,-0.82
2023-02-27T05:09:40.442Z,-0.82
2023-02-27T05:12:26.554Z,-0.82
2023-02-27T05:15:37.059Z,-0.82
2023-02-27T05:18:09.474Z,-0.83
2023-02-27T05:21:37.552Z,-0.84
2023-02-27T05:24:12.169Z,-0.84
2023-02-27T05:27:27.972Z,-0.84
2023-02-27T05:30:15.888Z,-0.84
2023-02-27T05:33:05.271Z,-0.85
2023-02-27T05:35:56.726Z,-0.85
2023-02-27T05:38:34.270Z,-0.84
2023-02-27T05:41:14.693Z,-0.85
2023-02-27T05:43:47.677Z,-0.85
2023-02-27T05:46:22.894Z,-0.85
2023-02-27T05:48:55.450Z,-0.84
2023-02-27T05:51:26.282Z,-0.85
2023-02-27T05:54:02.452Z,-0.85
2023-02-27T05:56:34.188Z,-0.86
2023-02-27T05:59:24.730Z,-0.87
2023-02-27T06:01:53.405Z,-0.87
2023-02-27T06:04:22.188Z,-0.88
2023-02-27T06:06:51.050Z,-0.89
2023-02-27T06:09:20.972Z,-0.88
2023-02-27T06:11:49.441Z,-0.87
2023-02-27T06:14:18.033Z,-0.86
2023-02-27T06:16:46.933Z,-0.85
2023-02-27T06:19:15.715Z,-0.83
2023-02-27T06:21:44.398Z,-0.83
2023-02-27T06:24:13.290Z,-0.82
2023-02-27T06:26:41.858Z,-0.81
2023-02-27T06:29:10.752Z,-0.81
2023-02-27T06:31:39.438Z,-0.80
2023-02-27T06:34:08.429Z,-0.80
2023-02-27T06:36:37.312Z,-0.79
2023-02-27T06:39:06.630Z,-0.79
2023-02-27T06:41:35.211Z,-0.77
2023-02-27T06:44:03.991Z,-0.76
2023-02-27T06:46:32.631Z,-0.74
2023-02-27T06:49:01.359Z,-0.74
2023-02-27T06:51:30.050Z,-0.72
2023-02-27T06:53:58.624Z,-0.72
2023-02-27T06:56:27.500Z,-0.70
2023-02-27T06:58:57.609Z,-0.69
2023-02-27T07:01:28.105Z,-0.68
2023-02-27T07:03:57.155Z,-0.67
2023-02-27T07:07:30.974Z,-0.65
2023-02-27T07:09:14.284Z,-0.63
2023-02-27T07:11:42.871Z,-0.62
2023-02-27T07:14:12.781Z,-0.59
2023-02-27T07:16:42.592Z,-0.56
2023-02-27T07:19:11.283Z,-0.54
2023-02-27T07:21:40.490Z,-0.52
2023-02-27T07:24:09.773Z,-0.49
2023-02-27T07:26:38.364Z,-0.46
2023-02-27T07:29:07.464Z,-0.45
2023-02-27T07:31:36.690Z,-0.41
2023-02-27T07:34:05.245Z,-0.37
2023-02-27T07:36:34.632Z,-0.35
2023-02-27T07:39:04.048Z,-0.31
2023-02-27T07:41:33.750Z,-0.27
2023-02-27T07:44:02.547Z,-0.24
2023-02-27T07:46:31.435Z,-0.22
2023-02-27T07:49:00.439Z,-0.17
2023-02-27T07:51:29.823Z,-0.14
2023-02-27T07:53:58.928Z,-0.10
2023-02-27T07:56:27.989Z,-0.06
2023-02-27T07:58:57.230Z,-0.03
2023-02-27T08:01:26.320Z,0.01
2023-02-27T08:03:56.724Z,0.06
2023-02-27T08:06:25.758Z,0.10
2023-02-27T08:08:54.777Z,0.12
2023-02-27T08:11:23.709Z,0.14
2023-02-27T08:14:01.305Z,0.17
2023-02-27T08:16:32.101Z,0.20
2023-02-27T08:19:01.486Z,0.23
2023-02-27T08:21:31.049Z,0.30
2023-02-27T08:23:59.942Z,0.36
2023-02-27T08:26:29.094Z,0.42
2023-02-27T08:28:58.019Z,0.48
2023-02-27T08:31:26.838Z,0.53
2023-02-27T08:34:04.476Z,0.60
2023-02-27T08:36:38.734Z,0.63
2023-02-27T08:39:08.330Z,0.67
2023-02-27T08:41:37.026Z,0.70
2023-02-27T08:44:06.205Z,0.70
2023-02-27T08:46:34.909Z,0.69
2023-02-27T08:49:03.788Z,0.70
2023-02-27T08:51:32.572Z,0.70
2023-02-27T08:54:01.780Z,0.72
2023-02-27T08:56:30.763Z,0.76
2023-02-27T08:58:59.378Z,0.79
2023-02-27T09:01:33.460Z,0.82
2023-02-27T09:04:03.877Z,0.89
2023-02-27T09:06:34.388Z,0.96
2023-02-27T09:09:04.240Z,1.02
2023-02-27T09:11:33.327Z,1.09
2023-02-27T09:14:01.799Z,1.16
2023-02-27T09:16:30.973Z,1.23
2023-02-27T09:18:59.889Z,1.31
2023-02-27T09:21:30.224Z,1.36
2023-02-27T09:24:02.533Z,1.39
2023-02-27T09:26:45.166Z,1.44
2023-02-27T09:29:15.218Z,1.51
2023-02-27T09:31:44.025Z,1.59
2023-02-27T09:34:12.885Z,1.65
2023-02-27T09:36:42.312Z,1.71
2023-02-27T09:39:11.285Z,1.78
2023-02-27T09:41:57.286Z,1.84
2023-02-27T09:44:46.970Z,1.92
2023-02-27T09:47:22.120Z,2.01
2023-02-27T09:50:02.457Z,2.06
2023-02-27T09:52:33.177Z,2.14
2023-02-27T09:55:02.295Z,2.21
2023-02-27T09:57:55.226Z,2.26
2023-02-27T10:00:41.258Z,2.26
2023-02-27T10:03:23.264Z,2.26
2023-02-27T10:06:01.033Z,2.28
2023-02-27T10:08:29.706Z,2.27
2023-02-27T10:11:08.207Z,2.24
2023-02-27T10:13:58.201Z,2.19
2023-02-27T10:16:29.236Z,2.16
2023-02-27T10:19:01.883Z,2.19
2023-02-27T10:21:49.457Z,2.23
2023-02-27T10:24:37.902Z,2.27
2023-02-27T10:27:08.732Z,2.31
2023-02-27T10:29:42.034Z,2.34
2023-02-27T10:32:22.960Z,2.37
2023-02-27T10:34:59.594Z,2.43
2023-02-27T10:37:28.752Z,2.51
2023-02-27T10:40:00.302Z,2.60
2023-02-27T10:42:33.845Z,2.69
2023-02-27T10:45:04.146Z,2.74
2023-02-27T10:47:33.146Z,2.76
2023-02-27T10:50:01.866Z,2.78
2023-02-27T10:52:31.627Z,2.81
2023-02-27T10:55:18.435Z,2.85
2023-02-27T10:57:47.128Z,2.85
2023-02-27T11:00:33.831Z,2.90
2023-02-27T11:03:02.725Z,2.96
2023-02-27T11:05:36.544Z,3.02
2023-02-27T11:08:22.941Z,3.09
2023-02-27T11:11:11.586Z,3.19
2023-02-27T11:13:42.683Z,3.25
2023-02-27T11:16:17.280Z,3.27
2023-02-27T11:18:47.961Z,3.29
2023-02-27T11:21:29.282Z,3.32
2023-02-27T11:24:01.226Z,3.32
2023-02-27T11:26:33.741Z,3.31
2023-02-27T11:29:15.493Z,3.27
2023-02-27T11:32:06.619Z,3.25
2023-02-27T11:34:38.537Z,3.29
2023-02-27T11:37:33.502Z,3.33
2023-02-27T11:40:13.432Z,3.40
2023-02-27T11:42:50.807Z,3.51
2023-02-27T11:46:13.869Z,3.59
2023-02-27T11:48:39.998Z,3.63
2023-02-27T11:51:37.106Z,3.66
2023-02-27T11:54:38.493Z,3.68
2023-02-27T11:57:30.277Z,3.68
2023-02-27T12:00:21.836Z,3.63
2023-02-27T12:02:59.638Z,3.59
2023-02-27T12:05:50.093Z,3.58
2023-02-27T12:08:30.198Z,3.59
2023-02-27T12:11:13.594Z,3.59
2023-02-27T12:13:47.554Z,3.56
2023-02-27T12:16:42.712Z,3.51
2023-02-27T12:19:32.284Z,3.51
2023-02-27T12:22:06.885Z,3.47
2023-02-27T12:25:07.293Z,3.43
2023-02-27T12:27:44.446Z,3.37
2023-02-27T12:30:22.984Z,3.24
2023-02-27T12:33:01.592Z,3.15
2023-02-27T12:35:33.436Z,3.08
2023-02-27T12:38:02.561Z,3.00
2023-02-27T12:40:34.185Z,2.95
2023-02-27T12:43:32.472Z,2.90
2023-02-27T12:46:32.273Z,2.86
2023-02-27T12:49:37.253Z,2.81
2023-02-27T12:52:07.332Z,2.76
2023-02-27T12:54:54.763Z,2.73
2023-02-27T12:57:57.646Z,2.72
2023-02-27T13:00:30.034Z,2.69
2023-02-27T13:03:06.074Z,2.63
2023-02-27T13:05:53.490Z,2.58
2023-02-27T13:08:52.939Z,2.58
2023-02-27T13:11:46.796Z,2.60
2023-02-27T13:14:27.556Z,2.63
2023-02-27T13:17:13.546Z,2.64
2023-02-27T13:19:53.404Z,2.63
2023-02-27T13:22:53.624Z,2.64
2023-02-27T13:25:24.067Z,2.61
2023-02-27T13:28:00.622Z,2.56
2023-02-27T13:30:29.203Z,2.49
2023-02-27T13:33:07.007Z,2.46
2023-02-27T13:35:57.219Z,2.44
2023-02-27T13:38:45.234Z,2.44
2023-02-27T13:41:29.373Z,2.43
2023-02-27T13:44:00.307Z,2.42
2023-02-27T13:46:34.050Z,2.45
2023-02-27T13:49:06.651Z,2.47
2023-02-27T13:51:35.922Z,2.49
2023-02-27T13:54:14.239Z,2.50
2023-02-27T13:56:58.742Z,2.52
2023-02-27T13:59:45.190Z,2.53
2023-02-27T14:02:56.778Z,2.53
2023-02-27T14:05:36.539Z,2.51
2023-02-27T14:08:19.426Z,2.50
2023-02-27T14:11:13.492Z,2.48
2023-02-27T14:13:52.312Z,2.42
2023-02-27T14:16:50.517Z,2.35
2023-02-27T14:19:21.599Z,2.28
2023-02-27T14:22:19.911Z,2.23
2023-02-27T14:25:02.420Z,2.16
2023-02-27T14:27:49.447Z,2.10
2023-02-27T14:30:31.653Z,2.04
2023-02-27T14:33:11.208Z,2.01
2023-02-27T14:35:40.111Z,2.01
2023-02-27T14:38:11.014Z,1.99
2023-02-27T14:41:01.302Z,1.97
2023-02-27T14:43:44.069Z,1.95
2023-02-27T14:46:27.579Z,1.95
2023-02-27T14:49:08.827Z,1.93
2023-02-27T14:51:38.131Z,1.92
2023-02-27T14:54:12.674Z,1.91
2023-02-27T14:56:54.462Z,1.90
2023-02-27T14:59:25.754Z,1.88
2023-02-27T15:01:56.559Z,1.88
2023-02-27T15:04:29.078Z,1.89
2023-02-27T15:06:59.077Z,1.90
2023-02-27T15:09:43.326Z,1.89
2023-02-27T15:12:20.885Z,1.85
2023-02-27T15:14:55.961Z,1.83
2023-02-27T15:17:27.657Z,1.81
2023-02-27T15:19:58.935Z,1.80
2023-02-27T15:22:38.905Z,1.80
2023-02-27T15:25:32.169Z,1.79
2023-02-27T15:28:08.482Z,1.78
2023-02-27T15:30:37.264Z,1.76
2023-02-27T15:33:13.633Z,1.76
2023-02-27T15:35:44.313Z,1.75
2023-02-27T15:38:33.949Z,1.74
2023-02-27T15:41:03.863Z,1.74
2023-02-27T15:43:34.229Z,1.73
2023-02-27T15:46:02.973Z,1.74
2023-02-27T15:48:32.573Z,1.73
2023-02-27T15:51:03.833Z,1.73
2023-02-27T15:53:34.390Z,1.70
2023-02-27T15:56:06.990Z,1.68
2023-02-27T15:58:38.945Z,1.65
2023-02-27T16:01:13.859Z,1.63
2023-02-27T16:03:52.320Z,1.60
2023-02-27T16:06:29.912Z,1.57
2023-02-27T16:09:29.026Z,1.56
2023-02-27T16:12:28.251Z,1.54
2023-02-27T16:15:28.072Z,1.53
2023-02-27T16:18:07.319Z,1.52
2023-02-27T16:21:01.842Z,1.51
2023-02-27T16:23:35.550Z,1.51
2023-02-27T16:26:37.437Z,1.47
2023-02-27T16:29:24.448Z,1.42
2023-02-27T16:31:55.924Z,1.39
2023-02-27T16:34:45.033Z,1.37
2023-02-27T16:37:21.105Z,1.34
2023-02-27T16:39:52.414Z,1.31
2023-02-27T16:42:22.089Z,1.29
2023-02-27T16:44:53.112Z,1.27
2023-02-27T16:47:23.433Z,1.26
2023-02-27T16:49:54.113Z,1.24
2023-02-27T16:52:23.465Z,1.20
2023-02-27T16:54:53.688Z,1.19
2023-02-27T16:57:28.081Z,1.16
2023-02-27T16:59:58.037Z,1.14
2023-02-27T17:02:27.326Z,1.12
2023-02-27T17:04:58.249Z,1.11
2023-02-27T17:07:27.989Z,1.10
2023-02-27T17:09:57.603Z,1.09
2023-02-27T17:12:27.587Z,1.08
2023-02-27T17:14:58.748Z,1.06
2023-02-27T17:17:28.965Z,1.04
2023-02-27T17:19:59.072Z,1.02
2023-02-27T17:22:29.834Z,1.00
2023-02-27T17:25:00.288Z,0.98
2023-02-27T17:27:30.464Z,0.97
2023-02-27T17:30:00.168Z,0.94
2023-02-27T17:32:30.099Z,0.92
2023-02-27T17:34:59.805Z,0.90
2023-02-27T17:37:30.440Z,0.88
2023-02-27T17:40:00.709Z,0.84
2023-02-27T17:42:36.905Z,0.81
2023-02-27T17:45:11.035Z,0.78
2023-02-27T17:47:47.511Z,0.75
2023-02-27T17:50:23.195Z,0.73
2023-02-27T17:52:55.672Z,0.69
2023-02-27T17:55:25.472Z,0.67
2023-02-27T17:57:55.903Z,0.64
2023-02-27T18:00:26.686Z,0.61
2023-02-27T18:02:57.601Z,0.57
2023-02-27T18:05:28.188Z,0.54
2023-02-27T18:07:58.454Z,0.52
2023-02-27T18:10:34.653Z,0.50
2023-02-27T18:13:06.769Z,0.48
2023-02-27T18:15:38.113Z,0.46
2023-02-27T18:18:08.305Z,0.43
2023-02-27T18:20:39.726Z,0.41
2023-02-27T18:23:10.725Z,0.39
2023-02-27T18:25:42.463Z,0.36
2023-02-27T18:28:13.751Z,0.34
2023-02-27T18:30:46.076Z,0.30
2023-02-27T18:33:16.425Z,0.28
2023-02-27T18:35:51.603Z,0.25
2023-02-27T18:38:26.203Z,0.21
2023-02-27T18:41:07.447Z,0.19
2023-02-27T18:43:40.206Z,0.17
2023-02-27T18:46:13.738Z,0.14
2023-02-27T18:48:46.624Z,0.14
2023-02-27T18:51:18.369Z,0.13
2023-02-27T18:53:53.571Z,0.12
2023-02-27T18:56:26.692Z,0.10
2023-02-27T18:59:03.609Z,0.08
2023-02-27T19:01:38.598Z,0.07
2023-02-27T19:04:12.481Z,0.05
2023-02-27T19:06:44.142Z,0.04
2023-02-27T19:09:20.419Z,0.03
2023-02-27T19:11:53.298Z,0.02
2023-02-27T19:14:29.290Z,-0.01
2023-02-27T19:17:02.679Z,-0.04
2023-02-27T19:19:33.845Z,-0.07
2023-02-27T19:22:03.885Z,-0.10
2023-02-27T19:24:35.478Z,-0.13
2023-02-27T19:27:05.972Z,-0.17
2023-02-27T19:29:43.557Z,-0.21
2023-02-27T19:32:15.854Z,-0.26
2023-02-27T19:34:46.212Z,-0.29
2023-02-27T19:37:18.389Z,-0.33
2023-02-27T19:39:49.272Z,-0.38
2023-02-27T19:42:20.407Z,-0.43
2023-02-27T19:44:51.092Z,-0.47
2023-02-27T19:47:24.740Z,-0.52
2023-02-27T19:49:55.464Z,-0.56
2023-02-27T19:52:27.352Z,-0.62
2023-02-27T19:54:58.155Z,-0.66
2023-02-27T19:57:29.322Z,-0.71
2023-02-27T20:00:00.993Z,-0.77
2023-02-27T20:02:31.953Z,-0.81
2023-02-27T20:05:04.203Z,-0.85
2023-02-27T20:07:34.088Z,-0.89
2023-02-27T20:10:06.641Z,-0.94
2023-02-27T20:12:40.140Z,-0.99
2023-02-27T20:15:12.556Z,-1.04
2023-02-27T20:17:45.824Z,-1.07
2023-02-27T20:20:16.359Z,-1.12
2023-02-27T20:22:47.003Z,-1.16
2023-02-27T20:25:18.987Z,-1.19
2023-02-27T20:27:52.816Z,-1.22
2023-02-27T20:30:27.745Z,-1.25
2023-02-27T20:32:59.160Z,-1.28
2023-02-27T20:35:29.988Z,-1.32
2023-02-27T20:38:00.664Z,-1.35
2023-02-27T20:40:34.452Z,-1.39
2023-02-27T20:43:06.124Z,-1.44
2023-02-27T20:45:42.051Z,-1.47
2023-02-27T20:48:17.763Z,-1.51
2023-02-27T20:50:50.298Z,-1.54
2023-02-27T20:53:26.294Z,-1.57
2023-02-27T20:55:57.067Z,-1.60
2023-02-27T20:58:29.312Z,-1.63
2023-02-27T21:01:00.372Z,-1.64
2023-02-27T21:03:38.538Z,-1.66
2023-02-27T21:06:11.272Z,-1.67
2023-02-27T21:08:42.485Z,-1.66
2023-02-27T21:11:14.724Z,-1.65
2023-02-27T21:13:45.822Z,-1.65
2023-02-27T21:16:20.985Z,-1.64
2023-02-27T21:18:52.345Z,-1.64
2023-02-27T21:21:24.364Z,-1.64
2023-02-27T21:23:54.453Z,-1.62
2023-02-27T21:26:35.356Z,-1.59
2023-02-27T21:29:10.315Z,-1.55
2023-02-27T21:31:41.278Z,-1.51
2023-02-27T21:34:13.912Z,-1.48
2023-02-27T21:36:44.212Z,-1.43
2023-02-27T21:39:20.564Z,-1.39
2023-02-27T21:41:50.190Z,-1.33
2023-02-27T21:44:20.527Z,-1.29
2023-02-27T21:46:49.381Z,-1.24
2023-02-27T21:49:23.668Z,-1.20
2023-02-27T21:51:53.160Z,-1.18
2023-02-27T21:54:23.451Z,-1.16
2023-02-27T21:56:52.409Z,-1.14
2023-02-27T21:59:22.057Z,-1.12
2023-02-27T22:01:50.979Z,-1.10
2023-02-27T22:04:21.250Z,-1.07
2023-02-27T22:06:51.202Z,-1.04
2023-02-27T22:09:21.803Z,-1.01
2023-02-27T22:11:50.683Z,-1.00
2023-02-27T22:14:19.261Z,-0.98
2023-02-27T22:16:48.069Z,-0.96
2023-02-27T22:19:22.468Z,-0.93
2023-02-27T22:21:51.170Z,-0.91
2023-02-27T22:24:20.851Z,-0.88
2023-02-27T22:26:50.692Z,-0.83
2023-02-27T22:29:19.789Z,-0.80
2023-02-27T22:31:48.512Z,-0.77
2023-02-27T22:34:18.970Z,-0.74
2023-02-27T22:36:49.125Z,-0.71
2023-02-27T22:39:17.786Z,-0.70
2023-02-27T22:41:46.674Z,-0.68
2023-02-27T22:44:16.805Z,-0.67
2023-02-27T22:46:48.312Z,-0.65
2023-02-27T22:49:20.325Z,-0.64
2023-02-27T22:51:51.270Z,-0.62
2023-02-27T22:54:23.198Z,-0.61
2023-02-27T22:56:53.282Z,-0.59
2023-02-27T22:59:22.118Z,-0.58
2023-02-27T23:01:51.816Z,-0.58
2023-02-27T23:04:22.541Z,-0.56
2023-02-27T23:06:52.842Z,-0.55
2023-02-27T23:09:24.819Z,-0.53
2023-02-27T23:11:54.554Z,-0.52
2023-02-27T23:14:24.479Z,-0.50
2023-02-27T23:16:53.362Z,-0.49
2023-02-27T23:19:22.650Z,-0.48
2023-02-27T23:21:51.237Z,-0.47
2023-02-27T23:24:20.531Z,-0.48
2023-02-27T23:26:51.197Z,-0.47
2023-02-27T23:29:20.314Z,-0.45
2023-02-27T23:31:49.184Z,-0.44
2023-02-27T23:34:17.981Z,-0.42
2023-02-27T23:36:46.842Z,-0.42
2023-02-27T23:39:16.543Z,-0.41
2023-02-27T23:41:45.140Z,-0.41
2023-02-27T23:44:33.060Z,-0.40
2023-02-27T23:47:01.851Z,-0.40
2023-02-27T23:49:30.637Z,-0.40
2023-02-27T23:51:59.446Z,-0.38
2023-02-27T23:54:28.111Z,-0.37
2023-02-27T23:56:56.906Z,-0.35
2023-02-27T23:59:28.467Z,-0.34
